Time;durP1;ratioP1;P1;durP2;ratioP2;P2;SDS_P1;SDS_P2;PMS_P1;PMS_P2;Temp;Humidity;BMP_temperature;BMP_pressure;BME280_temperature;BME280_humidity;BME280_pressure;Samples;Min_cycle;Max_cycle;Signal;HPM_P1;HPM_P2
2021/10/27 00:00:09;;;;;;;12.55;9.10;;;;;;;7.25;87.87;101401.47;4971347;28;20101;-79
2021/10/27 00:02:38;;;;;;;16.88;8.73;;;;;;;7.23;87.85;101403.16;4969773;28;20067;-79
2021/10/27 00:05:05;;;;;;;17.70;11.05;;;;;;;7.22;88.25;101406.66;4972317;28;20049;-80
2021/10/27 00:07:31;;;;;;;12.95;9.80;;;;;;;7.21;87.80;101403.16;4992212;28;20109;-80
2021/10/27 00:09:57;;;;;;;13.90;8.48;;;;;;;7.20;88.09;101404.00;4961027;28;20098;-79
2021/10/27 00:12:22;;;;;;;12.45;9.10;;;;;;;7.19;88.30;101407.47;4973863;28;20136;-79
2021/10/27 00:14:48;;;;;;;13.00;9.50;;;;;;;7.15;87.69;101410.00;4970171;28;20086;-78
2021/10/27 00:17:13;;;;;;;13.23;9.60;;;;;;;7.09;88.15;101409.88;4972506;28;20031;-80
2021/10/27 00:19:38;;;;;;;15.73;9.85;;;;;;;7.09;88.34;101413.38;4970616;28;20477;-80
2021/10/27 00:22:04;;;;;;;13.02;9.65;;;;;;;7.08;88.03;101403.75;4969497;28;20039;-79
2021/10/27 00:24:29;;;;;;;11.38;8.93;;;;;;;7.05;87.96;101413.25;4982301;28;20481;-79
2021/10/27 00:26:54;;;;;;;12.70;7.72;;;;;;;7.02;87.76;101417.63;4970801;28;20035;-79
2021/10/27 00:29:20;;;;;;;11.70;8.65;;;;;;;7.00;87.88;101419.31;4973359;28;20399;-79
2021/10/27 00:31:45;;;;;;;12.15;8.57;;;;;;;6.96;87.64;101420.06;4977136;28;20095;-80
2021/10/27 00:34:11;;;;;;;13.32;8.20;;;;;;;6.97;87.45;101415.75;4972521;28;20031;-80
2021/10/27 00:36:36;;;;;;;13.95;9.00;;;;;;;6.97;87.63;101411.38;4969893;28;20043;-80
2021/10/27 00:39:02;;;;;;;13.82;9.18;;;;;;;7.01;88.16;101418.44;4972678;28;20071;-80
2021/10/27 00:41:28;;;;;;;12.65;9.27;;;;;;;7.03;88.45;101422.00;4984561;28;20071;-79
2021/10/27 00:43:54;;;;;;;16.75;9.73;;;;;;;7.06;88.60;101415.06;4971266;28;20046;-79
2021/10/27 00:46:21;;;;;;;13.63;10.18;;;;;;;7.10;89.66;101424.75;4970785;28;20046;-80
2021/10/27 00:48:47;;;;;;;16.00;11.35;;;;;;;7.03;88.71;101421.13;4970951;28;20045;-80
2021/10/27 00:51:13;;;;;;;14.45;9.90;;;;;;;6.95;88.56;101415.69;4969979;28;20437;-80
2021/10/27 00:53:39;;;;;;;12.82;9.43;;;;;;;6.88;89.17;101421.66;4959627;28;20161;-80
2021/10/27 00:56:05;;;;;;;15.23;9.93;;;;;;;6.85;88.83;101421.59;4967529;28;20429;-80
2021/10/27 00:58:31;;;;;;;14.88;9.95;;;;;;;6.84;89.04;101429.41;4975327;28;20043;-80
2021/10/27 01:00:57;;;;;;;17.10;10.15;;;;;;;6.83;89.49;101428.53;4952394;28;20093;-80
2021/10/27 01:03:22;;;;;;;16.27;9.27;;;;;;;6.82;89.51;101426.75;4968439;28;20058;-80
2021/10/27 01:05:48;;;;;;;16.92;10.95;;;;;;;6.80;90.21;101418.84;4968913;28;20066;-80
2021/10/27 01:08:13;;;;;;;15.02;10.55;;;;;;;6.88;90.68;101426.91;4957564;28;20047;-80
2021/10/27 01:10:40;;;;;;;17.00;11.77;;;;;;;6.91;90.58;101424.34;4969049;28;20038;-80
2021/10/27 01:13:06;;;;;;;14.00;9.40;;;;;;;6.94;90.56;101415.66;4966214;28;20044;-80
2021/10/27 01:15:31;;;;;;;13.30;9.50;;;;;;;6.92;89.66;101413.00;4958501;28;20043;-79
2021/10/27 01:17:57;;;;;;;12.13;8.70;;;;;;;6.88;88.72;101415.53;4965404;28;20035;-80
2021/10/27 01:20:22;;;;;;;14.43;8.90;;;;;;;6.81;88.81;101417.09;4966697;28;20118;-80
2021/10/27 01:22:47;;;;;;;17.23;10.07;;;;;;;6.80;89.27;101415.34;4964243;28;20161;-80
2021/10/27 01:25:13;;;;;;;13.43;9.68;;;;;;;6.74;88.77;101405.59;4966061;28;20498;-79
2021/10/27 01:27:42;;;;;;;14.02;10.35;;;;;;;6.75;89.44;101412.59;4966272;28;20394;-79
2021/10/27 01:30:13;;;;;;;11.15;8.15;;;;;;;6.66;87.84;101411.53;4956209;28;20131;-79
2021/10/27 01:32:40;;;;;;;12.40;8.25;;;;;;;6.54;88.12;101406.84;4963141;28;20038;-79
2021/10/27 01:35:07;;;;;;;12.77;8.93;;;;;;;6.52;88.52;101412.06;4965843;28;20071;-79
2021/10/27 01:37:34;;;;;;;14.10;10.05;;;;;;;6.56;89.10;101423.50;4972612;28;20039;-80
2021/10/27 01:39:59;;;;;;;13.93;9.20;;;;;;;6.58;89.96;101409.59;4964674;28;20041;-80
2021/10/27 01:42:24;;;;;;;16.55;9.45;;;;;;;6.58;89.25;101409.59;4964973;28;20043;-80
2021/10/27 01:44:50;;;;;;;13.52;9.88;;;;;;;6.67;89.82;101405.41;4967908;28;20027;-79
2021/10/27 01:47:15;;;;;;;14.27;9.27;;;;;;;6.72;89.60;101409.03;4966801;28;20458;-81
2021/10/27 01:49:41;;;;;;;11.93;7.85;;;;;;;6.70;89.00;101397.59;4967807;28;20034;-81
2021/10/27 01:52:07;;;;;;;11.70;8.23;;;;;;;6.66;88.85;101398.41;4964871;28;20510;-80
2021/10/27 01:54:32;;;;;;;15.20;10.68;;;;;;;6.66;89.59;101401.91;4968857;28;20106;-80
2021/10/27 01:56:59;;;;;;;14.57;8.85;;;;;;;6.73;89.85;101390.72;4965156;28;20047;-80
2021/10/27 01:59:24;;;;;;;17.90;11.25;;;;;;;6.84;90.70;101390.97;4967904;28;20169;-80
2021/10/27 02:01:50;;;;;;;16.13;10.10;;;;;;;6.94;90.77;101387.69;4965503;28;20529;-80
2021/10/27 02:04:18;;;;;;;13.93;10.18;;;;;;;7.05;90.69;101384.38;4966295;28;20524;-80
2021/10/27 02:06:43;;;;;;;14.18;10.60;;;;;;;7.13;90.86;101374.97;4964722;28;20125;-79
2021/10/27 02:09:09;;;;;;;17.25;10.93;;;;;;;7.17;89.39;101393.41;4966858;28;20086;-80
2021/10/27 02:11:34;;;;;;;12.98;8.98;;;;;;;7.15;89.69;101394.25;4966920;28;20039;-80
2021/10/27 02:14:00;;;;;;;11.98;8.40;;;;;;;7.20;89.93;101395.22;4965862;28;20042;-79
2021/10/27 02:16:25;;;;;;;14.85;11.00;;;;;;;7.24;89.56;101397.97;4966857;28;20047;-79
2021/10/27 02:18:51;;;;;;;14.27;10.25;;;;;;;7.27;89.57;101394.50;4963068;28;20063;-79
2021/10/27 02:21:18;;;;;;;15.52;9.48;;;;;;;7.24;88.93;101391.81;4967404;28;20042;-80
2021/10/27 02:23:43;;;;;;;15.05;10.40;;;;;;;7.22;89.00;101398.78;4959743;28;20043;-79
2021/10/27 02:26:09;;;;;;;13.63;8.85;;;;;;;7.21;88.95;101387.41;4967625;28;20038;-79
2021/10/27 02:28:35;;;;;;;14.25;9.30;;;;;;;7.16;88.74;101401.28;4962956;28;20073;-79
2021/10/27 02:31:00;;;;;;;12.57;9.50;;;;;;;7.14;89.09;101397.72;4982583;28;20038;-79
2021/10/27 02:33:25;;;;;;;16.90;11.13;;;;;;;7.11;89.04;101397.66;4963927;28;20039;-79
2021/10/27 02:35:52;;;;;;;17.23;10.85;;;;;;;7.14;89.97;101390.72;4956868;28;20982;-79
2021/10/27 02:38:19;;;;;;;20.10;13.05;;;;;;;7.21;90.63;101394.41;4964543;28;20043;-80
2021/10/27 02:40:45;;;;;;;19.25;12.13;;;;;;;7.32;90.94;101392.88;4966268;28;20410;-79
2021/10/27 02:43:11;;;;;;;15.60;10.70;;;;;;;7.34;90.25;101391.16;4980466;28;20047;-79
2021/10/27 02:45:37;;;;;;;20.00;11.32;;;;;;;7.40;90.16;101385.16;4965949;28;20510;-80
2021/10/27 02:48:02;;;;;;;15.00;10.13;;;;;;;7.48;90.62;101388.81;4981461;28;20046;-79
2021/10/27 02:50:27;;;;;;;16.52;11.05;;;;;;;7.60;90.89;101386.44;4959326;28;20042;-79
2021/10/27 02:52:53;;;;;;;15.85;11.32;;;;;;;7.66;90.71;101380.41;4970482;28;20039;-79
2021/10/27 02:55:18;;;;;;;15.95;11.05;;;;;;;7.66;89.99;101380.41;4957699;28;20107;-80
2021/10/27 02:57:43;;;;;;;18.42;12.63;;;;;;;7.63;89.86;101385.63;4969996;28;20117;-80
2021/10/27 03:00:09;;;;;;;13.27;10.55;;;;;;;7.62;90.30;101382.09;4966282;28;20514;-79
2021/10/27 03:02:35;;;;;;;17.42;11.18;;;;;;;7.65;90.35;101381.25;4968157;28;20074;-80
2021/10/27 03:05:01;;;;;;;16.73;11.07;;;;;;;7.65;90.22;101389.13;4969323;28;20047;-80
2021/10/27 03:07:26;;;;;;;16.65;11.30;;;;;;;7.67;90.50;101387.44;4971581;28;20035;-79
2021/10/27 03:09:52;;;;;;;14.07;10.88;;;;;;;7.71;90.92;101396.28;4972346;28;20042;-80
2021/10/27 03:12:17;;;;;;;17.23;11.80;;;;;;;7.81;90.88;101398.22;4975700;28;20035;-80
2021/10/27 03:14:43;;;;;;;16.70;12.05;;;;;;;7.88;90.80;101403.59;4978570;28;20061;-80
2021/10/27 03:17:08;;;;;;;16.88;11.95;;;;;;;7.96;90.70;101400.22;4977146;28;20089;-80
2021/10/27 03:19:33;;;;;;;15.77;11.07;;;;;;;8.06;90.60;101399.56;4980212;28;20109;-80
2021/10/27 03:21:59;;;;;;;17.85;12.85;;;;;;;8.14;90.46;101405.81;4972479;28;20474;-80
2021/10/27 03:24:24;;;;;;;19.15;12.60;;;;;;;8.13;90.25;101404.06;4962321;28;20626;-80
2021/10/27 03:26:50;;;;;;;18.70;13.00;;;;;;;8.22;90.65;101405.97;4971435;28;20034;-79
2021/10/27 03:29:15;;;;;;;15.27;11.00;;;;;;;8.28;89.77;101406.97;4965429;28;20118;-79
2021/10/27 03:31:40;;;;;;;17.50;12.18;;;;;;;8.31;89.41;101406.13;4959806;28;20038;-79
2021/10/27 03:34:06;;;;;;;14.88;11.60;;;;;;;8.34;89.56;101407.06;4964555;28;20137;-79
2021/10/27 03:36:31;;;;;;;13.57;11.00;;;;;;;8.38;89.96;101417.63;4966863;28;20042;-79
2021/10/27 03:38:56;;;;;;;15.00;11.10;;;;;;;8.41;89.13;101417.72;4972437;28;20045;-80
2021/10/27 03:41:22;;;;;;;18.27;12.52;;;;;;;8.39;88.92;101419.41;4960947;28;20490;-79
2021/10/27 03:43:47;;;;;;;17.70;12.32;;;;;;;8.34;88.43;101412.31;4966929;28;20059;-79
2021/10/27 03:46:13;;;;;;;16.63;10.57;;;;;;;8.31;88.49;101411.41;4969094;28;20041;-79
2021/10/27 03:48:39;;;;;;;15.30;11.02;;;;;;;8.29;88.93;101424.50;4968962;28;20039;-80
2021/10/27 03:51:07;;;;;;;16.13;11.02;;;;;;;8.31;88.93;101427.19;4983422;28;20025;-79
2021/10/27 03:53:32;;;;;;;15.85;10.75;;;;;;;8.26;88.69;101424.47;4979892;28;20498;-78
2021/10/27 03:55:57;;;;;;;16.92;10.93;;;;;;;8.26;89.22;101426.22;4967408;28;20077;-78
2021/10/27 03:58:23;;;;;;;13.77;11.15;;;;;;;8.24;89.01;101417.41;4956536;28;20051;-79
2021/10/27 04:00:48;;;;;;;15.45;11.95;;;;;;;8.20;88.43;101424.38;4965698;28;20038;-80
2021/10/27 04:03:23;;;;;;;16.58;11.40;;;;;;;8.18;88.80;101426.06;4965466;28;20118;-79
2021/10/27 04:05:49;;;;;;;17.35;12.00;;;;;;;8.17;88.63;101426.91;4955949;29;20437;-79
2021/10/27 04:08:14;;;;;;;15.35;10.68;;;;;;;8.16;89.42;101425.16;4967579;28;20167;-79
2021/10/27 04:10:40;;;;;;;13.75;10.18;;;;;;;8.17;88.98;101437.44;4969763;28;20089;-78
2021/10/27 04:13:05;;;;;;;17.27;11.02;;;;;;;8.17;88.80;101434.78;4964135;28;20039;-79
2021/10/27 04:15:31;;;;;;;20.40;12.38;;;;;;;8.17;89.16;101432.16;4967527;28;20047;-80
2021/10/27 04:17:56;;;;;;;14.88;11.00;;;;;;;8.17;88.65;101434.78;4965958;28;20039;-79
2021/10/27 04:20:22;;;;;;;14.35;10.45;;;;;;;8.16;88.19;101430.41;4967006;28;20035;-80
2021/10/27 04:22:47;;;;;;;18.20;11.75;;;;;;;8.15;88.20;101436.53;4967865;28;20038;-81
2021/10/27 04:25:13;;;;;;;14.27;9.73;;;;;;;8.08;87.77;101439.91;4963333;28;20069;-79
2021/10/27 04:27:39;;;;;;;14.32;10.38;;;;;;;8.00;87.99;101441.50;4969637;28;20130;-79
2021/10/27 04:30:06;;;;;;;14.55;10.18;;;;;;;7.98;88.32;101444.09;4974183;28;20042;-79
2021/10/27 04:32:32;;;;;;;11.43;9.55;;;;;;;7.96;88.20;101439.66;4975870;28;20077;-79
2021/10/27 04:34:57;;;;;;;15.30;11.73;;;;;;;7.96;88.62;101440.53;4974569;28;20067;-80
2021/10/27 04:37:24;;;;;;;18.10;14.07;;;;;;;7.94;87.94;101447.53;4980451;28;20454;-79
2021/10/27 04:39:49;;;;;;;17.00;12.60;;;;;;;7.91;87.82;101436.94;4976454;28;20073;-80
2021/10/27 04:42:14;;;;;;;23.50;15.45;;;;;;;7.86;87.48;101443.88;4974145;28;20114;-80
2021/10/27 04:44:40;;;;;;;22.27;16.38;;;;;;;7.80;87.35;101438.47;4970076;28;20026;-79
2021/10/27 04:47:05;;;;;;;26.92;17.48;;;;;;;7.75;87.92;101433.13;4965168;28;21065;-78
2021/10/27 04:49:31;;;;;;;22.58;16.35;;;;;;;7.74;88.13;101439.25;4981572;28;20043;-79
2021/10/27 04:51:57;;;;;;;21.90;13.50;;;;;;;7.73;88.04;101436.59;4967800;28;20042;-79
2021/10/27 04:54:22;;;;;;;20.58;14.63;;;;;;;7.67;87.79;101430.34;4964171;28;20078;-80
2021/10/27 04:56:48;;;;;;;19.35;11.95;;;;;;;7.65;88.87;101431.16;4973210;28;20553;-80
2021/10/27 04:59:14;;;;;;;17.52;12.77;;;;;;;7.72;89.08;101432.19;4969252;28;20035;-80
2021/10/27 05:01:40;;;;;;;16.25;12.50;;;;;;;7.75;88.75;101435.75;4945325;28;20071;-79
2021/10/27 05:04:05;;;;;;;22.55;14.13;;;;;;;7.72;88.91;101430.44;4973261;28;20126;-79
2021/10/27 05:06:30;;;;;;;16.63;14.02;;;;;;;7.74;88.79;101439.25;4976831;28;20039;-79
2021/10/27 05:08:55;;;;;;;14.80;12.38;;;;;;;7.74;88.88;101434.00;4980531;28;20117;-79
2021/10/27 05:11:21;;;;;;;13.52;10.15;;;;;;;7.73;88.65;101439.22;4979028;28;20047;-79
2021/10/27 05:13:47;;;;;;;14.43;11.57;;;;;;;7.73;88.84;101437.50;4979058;28;20043;-80
2021/10/27 05:16:13;;;;;;;17.17;11.70;;;;;;;7.73;88.70;101448.00;4975360;28;20073;-80
2021/10/27 05:18:38;;;;;;;18.88;13.20;;;;;;;7.74;89.31;101439.25;4977634;28;20601;-80
2021/10/27 05:21:04;;;;;;;15.93;11.93;;;;;;;7.77;89.25;101443.69;4975890;28;20156;-80
2021/10/27 05:23:29;;;;;;;14.77;10.60;;;;;;;7.75;88.97;101442.75;4974056;28;20047;-80
2021/10/27 05:25:54;;;;;;;14.88;10.85;;;;;;;7.74;89.38;101449.75;4972734;28;20038;-80
2021/10/27 05:28:20;;;;;;;18.98;12.02;;;;;;;7.72;88.86;101443.59;4965289;28;20477;-79
2021/10/27 05:30:47;;;;;;;16.45;11.75;;;;;;;7.73;89.10;101457.59;4972221;28;20502;-80
2021/10/27 05:33:13;;;;;;;16.42;12.02;;;;;;;7.79;89.49;101458.63;4971101;28;20051;-80
2021/10/27 05:35:39;;;;;;;16.67;11.73;;;;;;;7.84;89.83;101450.84;4990473;28;20047;-79
2021/10/27 05:38:05;;;;;;;20.02;12.15;;;;;;;7.92;89.84;101454.50;4967580;28;20090;-79
2021/10/27 05:40:30;;;;;;;17.83;11.60;;;;;;;7.99;89.47;101451.16;4974221;28;20119;-79
2021/10/27 05:42:55;;;;;;;16.00;12.02;;;;;;;8.08;89.24;101450.41;4983085;28;20058;-80
2021/10/27 05:45:24;;;;;;;14.48;11.52;;;;;;;8.09;89.52;101458.31;4981448;28;20454;-79
2021/10/27 05:47:52;;;;;;;15.68;11.93;;;;;;;8.17;88.99;101455.84;4981978;28;20084;-80
2021/10/27 05:50:26;;;;;;;19.83;12.40;;;;;;;8.21;89.04;101456.78;4976772;28;20059;-79
2021/10/27 05:55:36;;;;;;;15.15;11.27;;;;;;;8.25;88.58;101455.97;4974375;28;20539;-79
2021/10/27 05:58:03;;;;;;;14.10;11.35;;;;;;;8.28;88.61;101454.31;4974743;28;20066;-79
2021/10/27 06:00:28;;;;;;;15.63;10.70;;;;;;;8.28;88.16;101451.69;4969796;28;20066;-79
2021/10/27 06:02:54;;;;;;;17.77;11.88;;;;;;;8.33;88.30;101451.75;4975975;28;20031;-79
2021/10/27 06:05:19;;;;;;;18.27;11.77;;;;;;;8.39;88.43;101466.78;4967614;28;20614;-80
2021/10/27 06:07:45;;;;;;;15.02;11.18;;;;;;;8.49;88.58;101463.47;4976368;28;20060;-79
2021/10/27 06:10:13;;;;;;;20.35;12.30;;;;;;;8.61;88.26;101471.56;4993676;28;20037;-78
2021/10/27 06:12:39;;;;;;;15.55;10.52;;;;;;;8.73;88.16;101469.13;4974367;28;20566;-80
2021/10/27 06:15:06;;;;;;;17.38;11.60;;;;;;;8.84;87.82;101474.56;4968480;28;20043;-80
2021/10/27 06:17:31;;;;;;;13.82;10.65;;;;;;;8.92;87.04;101475.56;4968312;28;20031;-79
2021/10/27 06:19:57;;;;;;;14.15;10.15;;;;;;;8.98;86.93;101480.03;4974482;28;20417;-80
2021/10/27 06:22:23;;;;;;;13.40;10.48;;;;;;;8.99;86.66;101481.84;4970043;28;20043;-79
2021/10/27 06:24:49;;;;;;;17.27;10.70;;;;;;;9.05;86.30;101486.31;4962876;28;20035;-79
2021/10/27 06:27:14;;;;;;;16.90;10.98;;;;;;;9.12;86.45;101481.16;4962118;28;20457;-79
2021/10/27 06:29:47;;;;;;;16.08;11.43;;;;;;;9.21;85.79;101483.03;4973515;28;20039;-80
2021/10/27 06:32:26;;;;;;;16.45;11.30;;;;;;;9.25;84.60;101492.78;4967767;28;20041;-80
2021/10/27 06:34:56;;;;;;;14.77;10.82;;;;;;;9.38;85.09;101491.19;4971192;28;20046;-79
2021/10/27 06:37:39;;;;;;;18.17;11.23;;;;;;;9.47;84.53;101490.44;4961895;28;20042;-80
2021/10/27 06:48:17;;;;;;;13.23;9.63;;;;;;;9.45;84.05;101495.66;4968938;28;20110;-79
2021/10/27 06:50:43;;;;;;;15.85;11.27;;;;;;;9.47;83.85;101495.69;4988901;28;20035;-79
2021/10/27 06:53:09;;;;;;;12.02;9.73;;;;;;;9.49;84.00;101500.13;4973593;28;20043;-80
2021/10/27 06:55:37;;;;;;;11.60;9.07;;;;;;;9.53;83.70;101512.47;4973357;28;20066;-80
2021/10/27 06:58:03;;;;;;;15.02;9.80;;;;;;;9.56;83.54;101507.25;4975094;28;20054;-80
2021/10/27 07:05:55;;;;;;;14.20;9.90;;;;;;;9.70;83.06;101517.09;4977986;28;20042;-79
2021/10/27 07:16:34;;;;;;;11.38;8.05;;;;;;;10.21;82.46;101535.28;4965454;28;20110;-79
2021/10/27 07:18:59;;;;;;;9.70;7.72;;;;;;;10.34;82.03;101535.47;4968443;28;20039;-79
2021/10/27 07:21:25;;;;;;;12.70;8.63;;;;;;;10.52;81.43;101539.19;4991874;28;20042;-79
2021/10/27 07:23:51;;;;;;;9.77;7.03;;;;;;;10.73;80.99;101545.53;4976385;28;20039;-79
2021/10/27 07:26:18;;;;;;;13.32;7.35;;;;;;;10.86;79.77;101547.44;4974810;28;20038;-79
2021/10/27 07:28:45;;;;;;;9.82;6.47;;;;;;;10.98;79.26;101551.94;4950511;28;20035;-79
2021/10/27 07:31:14;;;;;;;9.95;7.00;;;;;;;11.12;79.50;101549.41;4977271;28;20478;-79
2021/10/27 07:33:39;;;;;;;11.40;6.40;;;;;;;11.25;78.94;101545.97;4976104;28;20027;-80
2021/10/27 07:41:27;;;;;;;9.30;6.05;;;;;;;11.58;77.10;101536.50;4971620;28;20056;-79
2021/10/27 07:43:52;;;;;;;11.30;7.50;;;;;;;11.67;76.77;101533.03;4977696;28;20485;-79
2021/10/27 07:46:18;;;;;;;9.68;6.70;;;;;;;11.75;76.81;101536.59;4969803;28;20133;-79
2021/10/27 07:48:43;;;;;;;8.75;6.57;;;;;;;11.82;76.35;101535.75;4993382;28;20051;-79
2021/10/27 07:51:09;;;;;;;9.70;6.13;;;;;;;11.94;75.10;101542.88;4973728;28;20031;-80
2021/10/27 07:53:34;;;;;;;10.60;6.57;;;;;;;11.99;75.76;101539.38;4968637;28;20046;-80
2021/10/27 07:56:00;;;;;;;9.57;6.10;;;;;;;12.04;75.25;101539.41;4976220;28;20045;-80
2021/10/27 07:58:26;;;;;;;10.52;6.50;;;;;;;12.08;75.07;101541.19;4976337;28;20035;-80
2021/10/27 08:00:53;;;;;;;8.05;5.60;;;;;;;12.21;74.70;101545.66;4976412;28;20119;-80
2021/10/27 08:03:19;;;;;;;10.18;5.38;;;;;;;12.30;73.71;101543.91;4950698;28;20039;-80
2021/10/27 08:05:44;;;;;;;11.45;6.10;;;;;;;12.34;73.86;101549.22;4975774;28;20046;-79
2021/10/27 08:08:18;;;;;;;8.00;5.38;;;;;;;12.47;72.82;101540.44;4966781;28;20050;-80
2021/10/27 08:10:51;;;;;;;10.85;5.60;;;;;;;12.62;72.80;101528.09;4974037;28;20078;-79
2021/10/27 08:14:19;;;;;;;;;;;;;;;;;;;;;
2021/10/27 08:17:10;;;;;;;10.27;5.40;;;;;;;12.70;71.87;101527.19;4929326;28;20057;-79
2021/10/27 08:19:35;;;;;;;11.02;6.22;;;;;;;12.75;72.47;101534.28;4987044;28;20502;-79
2021/10/27 08:22:06;;;;;;;8.60;5.25;;;;;;;12.68;72.34;101526.34;4978756;28;20045;-80
2021/10/27 08:37:46;;;;;;;7.43;4.18;;;;;;;12.82;70.77;101536.94;4971573;28;20050;-80
2021/10/27 08:40:46;;;;;;;5.85;4.13;;;;;;;12.82;70.31;101531.63;4977180;28;20058;-78
2021/10/27 08:43:39;;;;;;;7.40;3.80;;;;;;;12.87;69.92;101531.66;4974597;28;20050;-80
2021/10/27 08:46:15;;;;;;;8.18;4.28;;;;;;;12.91;70.23;101525.44;4975594;28;20058;-79
2021/10/27 08:48:50;;;;;;;6.03;3.80;;;;;;;13.11;69.89;101534.28;4989071;28;20035;-80
2021/10/27 08:54:32;;;;;;;7.50;4.20;;;;;;;13.16;69.73;101531.63;4975733;28;20521;-80
2021/10/27 08:57:03;;;;;;;9.52;4.10;;;;;;;13.17;69.33;101530.75;4983647;28;20034;-80
2021/10/27 08:59:44;;;;;;;6.95;3.75;;;;;;;13.24;69.28;101528.97;4965389;28;20035;-80
2021/10/27 09:07:53;;;;;;;8.43;3.97;;;;;;;13.13;69.48;101537.81;4964791;29;20626;-80
2021/10/27 09:14:32;;;;;;;7.82;4.18;;;;;;;13.13;69.87;101531.66;4981963;23;20074;-80
2021/10/27 09:35:58;;;;;;;8.02;3.80;;;;;;;13.15;69.66;101528.13;4974190;28;20038;-80
2021/10/27 10:06:17;;;;;;;8.35;4.18;;;;;;;13.54;68.69;101555.47;4979756;28;20031;-81
2021/10/27 10:08:47;;;;;;;6.43;4.10;;;;;;;13.62;68.72;101554.56;4981028;28;20105;-81
2021/10/27 10:11:16;;;;;;;7.95;3.75;;;;;;;13.65;68.25;101551.91;4978962;28;20038;-81
2021/10/27 10:13:46;;;;;;;8.85;4.22;;;;;;;13.71;68.46;101551.91;4979070;28;20050;-81
2021/10/27 10:16:14;;;;;;;9.00;4.32;;;;;;;13.77;68.35;101552.75;4979928;28;20035;-80
2021/10/27 10:18:40;;;;;;;8.15;4.30;;;;;;;13.84;68.54;101543.03;4977757;28;20042;-80
2021/10/27 10:21:06;;;;;;;6.47;4.18;;;;;;;13.91;68.15;101547.44;4972969;28;20031;-79
2021/10/27 10:23:31;;;;;;;7.30;4.53;;;;;;;13.87;68.20;101542.13;4970998;28;20045;-80
2021/10/27 10:26:00;;;;;;;7.55;4.70;;;;;;;13.97;68.56;101538.56;4973450;28;20027;-80
2021/10/27 10:28:27;;;;;;;8.02;4.35;;;;;;;14.12;67.47;101533.19;4962054;28;20045;-80
2021/10/27 10:31:00;;;;;;;7.07;3.70;;;;;;;14.22;67.52;101534.00;4980610;28;20474;-81
2021/10/27 10:33:42;;;;;;;8.13;4.22;;;;;;;14.30;67.17;101542.78;4981402;28;20141;-80
2021/10/27 10:36:26;;;;;;;7.70;3.97;;;;;;;14.38;66.99;101535.69;4989779;28;20035;-80
2021/10/27 10:44:19;;;;;;;6.68;3.67;;;;;;;14.55;66.37;101535.63;4979849;28;20058;-82
2021/10/27 11:27:49;;;;;;;7.03;3.03;;;;;;;14.45;67.27;101542.72;4977717;28;20047;-82
2021/10/27 11:38:38;;;;;;;5.65;3.05;;;;;;;14.68;67.17;101536.41;4985055;28;20042;-81
2021/10/27 11:41:20;;;;;;;8.90;3.17;;;;;;;14.72;66.72;101530.16;4986646;28;20041;-82
2021/10/27 11:43:59;;;;;;;;;;;;;;;14.73;66.65;101531.06;4970588;28;20065;-81
2021/10/27 11:49:59;;;;;;;7.57;3.30;;;;;;;14.77;66.30;101533.66;4987717;28;20066;-82
2021/10/27 11:53:18;;;;;;;6.47;3.50;;;;;;;14.87;66.29;101530.06;4993409;28;20039;-82
2021/10/27 11:55:43;;;;;;;6.32;3.50;;;;;;;14.98;66.45;101531.75;4996555;28;20039;-82
2021/10/27 11:58:15;;;;;;;6.18;3.28;;;;;;;15.07;65.61;101521.91;4973871;28;20062;-82
2021/10/27 12:01:01;;;;;;;6.53;3.40;;;;;;;15.15;65.83;101520.97;4988876;28;20045;-82
2021/10/27 12:03:37;;;;;;;7.57;4.18;;;;;;;15.16;65.63;101520.94;4987186;28;20042;-82
2021/10/27 12:06:11;;;;;;;5.93;3.13;;;;;;;15.20;65.48;101517.38;4972095;28;20050;-82
2021/10/27 12:13:51;;;;;;;6.03;3.15;;;;;;;15.36;64.74;101506.59;4985503;28;20058;-82
2021/10/27 12:23:56;;;;;;;4.78;2.75;;;;;;;15.31;64.29;101503.97;4919986;29;20640;-83
2021/10/27 12:31:10;;;;;;;5.22;2.38;;;;;;;15.50;65.04;101499.31;4930595;29;20047;-82
2021/10/27 12:33:40;;;;;;;7.57;2.90;;;;;;;15.43;64.89;101500.28;4921164;29;20040;-82
2021/10/27 12:36:28;;;;;;;4.90;2.45;;;;;;;15.32;64.30;101493.28;4965840;28;20111;-82
2021/10/27 12:39:24;;;;;;;6.63;2.50;;;;;;;15.44;64.75;101496.75;4992417;28;20030;-83
2021/10/27 12:42:06;;;;;;;6.05;3.05;;;;;;;15.60;64.61;101498.31;4988358;28;20034;-82
2021/10/27 12:44:33;;;;;;;;;;;;;;;15.34;64.56;101496.81;4986245;28;20094;-82
2021/10/27 12:47:09;;;;;;;5.70;2.40;;;;;;;15.38;65.01;101502.09;4989004;28;19978;-82
2021/10/27 12:49:34;;;;;;;6.72;2.53;;;;;;;15.48;65.14;101490.47;4986108;28;20075;-82
2021/10/27 13:08:23;;;;;;;4.85;2.63;;;;;;;15.60;64.44;101485.03;4914393;29;20080;-82
2021/10/27 13:34:26;;;;;;;4.47;2.67;;;;;;;15.53;63.84;101483.31;5049000;23;20041;-82
2021/10/27 14:10:28;;;;;;;4.80;2.22;;;;;;;15.58;64.13;101465.53;4940155;28;20050;-82
2021/10/27 14:19:32;;;;;;;6.55;3.03;;;;;;;15.47;64.81;101463.00;4980300;28;20073;-83
2021/10/27 14:39:01;;;;;;;11.10;5.53;;;;;;;15.33;64.88;101452.53;4997630;23;20108;-76
2021/10/27 14:48:07;;;;;;;6.15;3.47;;;;;;;15.08;65.98;101440.38;4947059;29;20070;-75
2021/10/27 14:59:18;;;;;;;6.28;2.65;;;;;;;14.98;66.00;101436.06;4972258;28;20030;-73
2021/10/27 15:20:50;;;;;;;5.97;2.47;;;;;;;14.72;66.38;101447.78;4971678;28;20035;-73
2021/10/27 15:23:44;;;;;;;6.13;2.47;;;;;;;14.73;66.72;101451.38;4972297;28;20047;-74
2021/10/27 15:29:17;;;;;;;7.60;2.78;;;;;;;14.73;66.86;101451.38;4975347;28;20097;-73
2021/10/27 15:32:14;;;;;;;6.70;3.00;;;;;;;14.65;66.79;101459.41;4970939;28;20039;-73
2021/10/27 15:34:52;;;;;;;7.13;2.95;;;;;;;14.57;67.47;101463.88;4972535;28;20046;-73
2021/10/27 15:42:39;;;;;;;3.75;2.28;;;;;;;14.51;67.60;101458.56;4971591;28;20046;-74
2021/10/27 15:53:28;;;;;;;5.78;2.78;;;;;;;14.48;67.88;101463.00;4961896;28;20046;-73
2021/10/27 15:55:53;;;;;;;6.57;3.10;;;;;;;14.45;67.61;101460.38;4974544;28;20049;-74
2021/10/27 15:58:19;;;;;;;5.55;2.47;;;;;;;14.37;67.63;101464.00;4957433;28;20162;-75
2021/10/27 16:00:45;;;;;;;6.22;3.00;;;;;;;14.36;67.90;101462.25;4974537;28;20153;-74
2021/10/27 16:03:11;;;;;;;4.47;2.22;;;;;;;14.39;67.99;101467.53;4974419;28;20049;-74
2021/10/27 16:05:39;;;;;;;3.80;2.20;;;;;;;14.37;68.08;101467.53;4957307;28;20043;-74
2021/10/27 16:08:06;;;;;;;8.48;3.38;;;;;;;14.39;67.94;101462.22;4973616;28;20042;-74
2021/10/27 16:10:34;;;;;;;5.32;3.05;;;;;;;14.28;68.16;101467.59;4973232;28;20069;-75
2021/10/27 16:12:59;;;;;;;5.18;2.83;;;;;;;14.29;68.07;101469.34;4974299;28;20027;-75
2021/10/27 16:15:38;;;;;;;7.88;3.00;;;;;;;14.28;68.30;101474.66;4974361;28;20058;-74
2021/10/27 16:18:08;;;;;;;5.38;2.90;;;;;;;14.31;68.20;101467.56;4971984;28;20121;-75
2021/10/27 16:20:34;;;;;;;5.10;2.60;;;;;;;14.31;67.94;101467.56;4974411;28;20509;-75
2021/10/27 16:23:00;;;;;;;5.75;2.63;;;;;;;14.30;68.18;101465.78;4974025;28;20035;-75
2021/10/27 16:25:26;;;;;;;6.20;2.80;;;;;;;14.18;68.60;101469.41;4973405;28;20049;-75
2021/10/27 16:27:52;;;;;;;5.78;2.60;;;;;;;14.25;68.46;101464.94;4974186;28;20046;-75
2021/10/27 16:30:18;;;;;;;5.30;2.50;;;;;;;14.26;68.39;101472.03;4974018;28;20057;-75
2021/10/27 16:32:44;;;;;;;4.30;2.33;;;;;;;14.24;68.28;101471.16;4973530;28;20034;-75
2021/10/27 16:35:10;;;;;;;5.13;2.47;;;;;;;14.19;68.27;101475.59;4971913;28;20030;-75
2021/10/27 16:37:35;;;;;;;5.65;2.40;;;;;;;14.19;68.27;101475.59;4972227;28;20732;-75
2021/10/27 16:40:01;;;;;;;5.07;2.42;;;;;;;14.19;68.42;101475.59;4971512;28;20590;-74
2021/10/27 16:42:27;;;;;;;4.80;2.42;;;;;;;14.12;68.59;101473.88;4972368;28;20030;-75
2021/10/27 16:44:53;;;;;;;3.47;2.13;;;;;;;14.08;68.67;101472.13;4972339;28;20434;-75
2021/10/27 16:47:18;;;;;;;4.90;1.95;;;;;;;14.01;68.72;101474.81;4969898;28;20105;-74
2021/10/27 16:49:44;;;;;;;4.07;2.22;;;;;;;14.00;68.69;101470.41;4973291;28;20038;-74
2021/10/27 16:52:09;;;;;;;3.88;2.05;;;;;;;13.92;69.08;101472.22;4973040;28;20050;-75
2021/10/27 16:54:35;;;;;;;3.85;1.83;;;;;;;13.92;68.91;101482.84;4972544;28;20077;-75